createdAt,value
2024-02-26T00:00:46.795Z,99.99
2024-02-26T00:01:46.986Z,99.99
2024-02-26T00:02:46.680Z,99.99
2024-02-26T00:03:46.615Z,99.99
2024-02-26T00:04:46.559Z,99.99
2024-02-26T00:05:46.584Z,99.99
2024-02-26T00:06:46.858Z,99.99
2024-02-26T00:07:46.447Z,99.99
2024-02-26T00:08:46.471Z,99.99
2024-02-26T00:09:46.368Z,99.99
2024-02-26T00:10:46.394Z,99.99
2024-02-26T00:11:46.606Z,99.99
2024-02-26T00:12:46.254Z,99.99
2024-02-26T00:13:46.221Z,99.99
2024-02-26T00:14:46.210Z,99.99
2024-02-26T00:15:46.161Z,99.99
2024-02-26T00:16:46.406Z,99.99
2024-02-26T00:17:46.173Z,99.99
2024-02-26T00:18:48.864Z,99.99
2024-02-26T00:19:46.062Z,99.99
2024-02-26T00:20:45.976Z,99.99
2024-02-26T00:21:45.952Z,99.99
2024-02-26T00:22:45.872Z,99.99
2024-02-26T00:23:45.897Z,99.99
2024-02-26T00:24:45.793Z,99.99
2024-02-26T00:25:45.760Z,99.99
2024-02-26T00:26:46.012Z,99.99
2024-02-26T00:27:45.679Z,99.99
2024-02-26T00:28:45.654Z,99.99
2024-02-26T00:29:45.631Z,99.99
2024-02-26T00:30:45.561Z,99.99
2024-02-26T00:31:45.835Z,99.99
2024-02-26T00:32:45.535Z,99.99
2024-02-26T00:33:45.612Z,99.99
2024-02-26T00:34:45.433Z,99.99
2024-02-26T00:35:45.667Z,99.99
2024-02-26T00:36:45.366Z,99.99
2024-02-26T00:37:45.301Z,99.99
2024-02-26T00:38:45.281Z,99.99
2024-02-26T00:39:45.236Z,99.99
2024-02-26T00:40:45.456Z,99.99
2024-02-26T00:41:45.168Z,99.99
2024-02-26T00:42:45.098Z,99.99
2024-02-26T00:43:45.065Z,99.99
2024-02-26T00:44:45.074Z,99.99
2024-02-26T00:45:45.270Z,99.99
2024-02-26T00:46:44.961Z,99.99
2024-02-26T00:47:44.950Z,99.99
2024-02-26T00:48:45.030Z,99.99
2024-02-26T00:49:44.989Z,99.99
2024-02-26T00:50:45.211Z,99.99
2024-02-26T00:51:44.764Z,99.99
2024-02-26T00:52:44.728Z,99.99
2024-02-26T00:53:44.743Z,99.99
2024-02-26T00:54:44.639Z,99.99
2024-02-26T00:55:44.897Z,99.99
2024-02-26T00:56:44.652Z,99.99
2024-02-26T00:57:44.540Z,99.99
2024-02-26T00:58:44.484Z,99.99
2024-02-26T00:59:44.465Z,99.99
2024-02-26T01:00:44.747Z,99.99
2024-02-26T01:01:44.373Z,99.99
2024-02-26T01:02:44.459Z,99.99
2024-02-26T01:03:50.391Z,99.99
2024-02-26T01:04:44.248Z,99.99
2024-02-26T01:05:44.582Z,99.99
2024-02-26T01:06:44.264Z,99.99
2024-02-26T01:07:44.194Z,99.99
2024-02-26T01:08:44.178Z,99.99
2024-02-26T01:09:44.072Z,99.99
2024-02-26T01:10:44.371Z,99.99
2024-02-26T01:11:43.999Z,99.99
2024-02-26T01:12:43.943Z,99.99
2024-02-26T01:13:43.916Z,99.99
2024-02-26T01:14:44.390Z,99.99
2024-02-26T01:15:44.102Z,99.99
2024-02-26T01:16:43.792Z,99.99
2024-02-26T01:17:43.918Z,99.99
2024-02-26T01:18:43.812Z,99.99
2024-02-26T01:19:43.703Z,99.99
2024-02-26T01:20:43.946Z,99.99
2024-02-26T01:21:43.588Z,99.99
2024-02-26T01:22:43.555Z,99.99
2024-02-26T01:23:43.535Z,99.99
2024-02-26T01:24:43.506Z,99.99
2024-02-26T01:25:43.430Z,99.99
2024-02-26T01:26:43.714Z,99.99
2024-02-26T01:27:43.360Z,99.99
2024-02-26T01:28:43.320Z,99.99
2024-02-26T01:29:43.306Z,99.99
2024-02-26T01:30:43.529Z,99.99
2024-02-26T01:31:43.200Z,99.99
2024-02-26T01:32:43.234Z,99.99
2024-02-26T01:33:43.272Z,99.99
2024-02-26T01:34:43.176Z,99.99
2024-02-26T01:35:43.353Z,99.99
2024-02-26T01:36:43.032Z,99.99
2024-02-26T01:37:42.964Z,99.99
2024-02-26T01:38:43.002Z,99.99
2024-02-26T01:39:43.069Z,99.99
2024-02-26T01:40:43.134Z,99.99
2024-02-26T01:41:42.912Z,99.99
2024-02-26T01:42:42.787Z,99.99
2024-02-26T01:43:42.737Z,99.99
2024-02-26T01:44:42.717Z,99.99
2024-02-26T01:45:42.950Z,99.99
2024-02-26T01:46:43.505Z,99.99
2024-02-26T01:47:45.212Z,99.99
2024-02-26T01:48:42.673Z,99.99
2024-02-26T01:49:42.544Z,99.99
2024-02-26T01:50:42.580Z,99.99
2024-02-26T01:51:42.728Z,99.99
2024-02-26T01:52:42.399Z,99.99
2024-02-26T01:53:42.406Z,99.99
2024-02-26T01:54:42.311Z,99.99
2024-02-26T01:55:42.322Z,99.99
2024-02-26T01:56:42.563Z,99.99
2024-02-26T01:57:42.185Z,99.99
2024-02-26T01:58:42.153Z,99.99
2024-02-26T01:59:42.133Z,99.99
2024-02-26T02:00:42.153Z,99.99
2024-02-26T02:01:42.381Z,99.99
2024-02-26T02:02:42.016Z,99.99
2024-02-26T02:03:42.011Z,99.99
2024-02-26T02:04:41.991Z,99.99
2024-02-26T02:05:41.914Z,99.99
2024-02-26T02:06:42.200Z,99.99
2024-02-26T02:07:41.825Z,99.99
2024-02-26T02:08:41.803Z,99.99
2024-02-26T02:09:41.737Z,99.99
2024-02-26T02:10:41.708Z,99.99
2024-02-26T02:11:41.737Z,99.99
2024-02-26T02:12:41.619Z,99.99
2024-02-26T02:13:41.580Z,99.99
2024-02-26T02:14:41.548Z,99.99
2024-02-26T02:15:41.805Z,99.99
2024-02-26T02:16:41.453Z,99.99
2024-02-26T02:17:41.621Z,99.99
2024-02-26T02:18:41.534Z,99.99
2024-02-26T02:19:41.362Z,99.99
2024-02-26T02:20:41.627Z,99.99
2024-02-26T02:21:41.295Z,99.99
2024-02-26T02:22:41.224Z,99.99
2024-02-26T02:23:41.186Z,99.99
2024-02-26T02:24:41.140Z,99.99
2024-02-26T02:25:41.396Z,99.99
2024-02-26T02:26:41.095Z,99.99
2024-02-26T02:27:41.017Z,99.99
2024-02-26T02:28:40.990Z,99.99
2024-02-26T02:29:40.999Z,99.99
2024-02-26T02:30:41.218Z,99.99
2024-02-26T02:31:41.010Z,99.99
2024-02-26T02:32:40.933Z,99.99
2024-02-26T02:33:40.909Z,99.99
2024-02-26T02:34:40.759Z,99.99
2024-02-26T02:35:40.750Z,99.99
2024-02-26T02:36:40.673Z,99.99
2024-02-26T02:37:40.634Z,99.99
2024-02-26T02:38:40.609Z,99.99
2024-02-26T02:39:40.562Z,99.99
2024-02-26T02:40:40.802Z,99.99
2024-02-26T02:41:40.503Z,99.99
2024-02-26T02:42:40.439Z,99.99
2024-02-26T02:43:40.399Z,99.99
2024-02-26T02:44:40.389Z,99.99
2024-02-26T02:45:40.611Z,99.99
2024-02-26T02:46:40.282Z,99.99
2024-02-26T02:47:40.319Z,99.99
2024-02-26T02:48:40.339Z,99.99
2024-02-26T02:49:40.201Z,99.99
2024-02-26T02:50:40.452Z,99.99
2024-02-26T02:51:40.087Z,99.99
2024-02-26T02:52:40.074Z,99.99
2024-02-26T02:53:40.075Z,99.99
2024-02-26T02:54:39.982Z,99.99
2024-02-26T02:55:40.245Z,99.99
2024-02-26T02:56:39.981Z,99.99
2024-02-26T02:57:39.858Z,99.99
2024-02-26T02:58:39.826Z,99.99
2024-02-26T02:59:39.832Z,99.99
2024-02-26T03:00:39.912Z,99.99
2024-02-26T03:01:39.742Z,99.99
2024-02-26T03:02:39.706Z,99.99
2024-02-26T03:03:39.626Z,99.99
2024-02-26T03:04:39.620Z,99.99
2024-02-26T03:05:39.936Z,99.99
2024-02-26T03:06:39.587Z,99.99
2024-02-26T03:07:39.459Z,99.99
2024-02-26T03:08:47.102Z,99.99
2024-02-26T03:09:39.387Z,99.99
2024-02-26T03:10:39.629Z,99.99
2024-02-26T03:11:39.407Z,99.99
2024-02-26T03:12:39.277Z,99.99
2024-02-26T03:13:39.230Z,99.99
2024-02-26T03:14:39.244Z,99.99
2024-02-26T03:15:39.473Z,99.99
2024-02-26T03:16:39.123Z,99.99
2024-02-26T03:17:39.106Z,99.99
2024-02-26T03:18:39.156Z,99.99
2024-02-26T03:19:39.067Z,99.99
2024-02-26T03:20:39.275Z,99.99
2024-02-26T03:21:38.933Z,99.99
2024-02-26T03:22:38.878Z,99.99
2024-02-26T03:23:38.841Z,99.99
2024-02-26T03:24:38.806Z,99.99
2024-02-26T03:25:39.037Z,99.99
2024-02-26T03:26:38.720Z,99.99
2024-02-26T03:27:38.701Z,99.99
2024-02-26T03:28:38.648Z,99.99
2024-02-26T03:29:38.611Z,99.99
2024-02-26T03:30:38.837Z,99.99
2024-02-26T03:31:38.535Z,99.99
2024-02-26T03:32:38.601Z,99.99
2024-02-26T03:33:38.761Z,99.99
2024-02-26T03:34:38.644Z,99.99
2024-02-26T03:35:38.648Z,99.99
2024-02-26T03:36:38.399Z,99.99
2024-02-26T03:37:38.411Z,99.99
2024-02-26T03:38:38.272Z,99.99
2024-02-26T03:39:38.216Z,99.99
2024-02-26T03:40:38.449Z,99.99
2024-02-26T03:41:38.185Z,99.99
2024-02-26T03:42:38.101Z,99.99
2024-02-26T03:43:38.077Z,99.99
2024-02-26T03:44:38.027Z,99.99
2024-02-26T03:45:38.289Z,99.99
2024-02-26T03:46:37.952Z,99.99
2024-02-26T03:47:38.010Z,99.99
2024-02-26T03:48:38.025Z,99.99
2024-02-26T03:49:37.963Z,99.99
2024-02-26T03:50:38.064Z,99.99
2024-02-26T03:51:37.749Z,99.99
2024-02-26T03:52:37.718Z,99.99
2024-02-26T03:53:37.681Z,99.99
2024-02-26T03:54:37.634Z,99.99
2024-02-26T03:55:37.877Z,99.99
2024-02-26T03:56:37.555Z,99.99
2024-02-26T03:57:37.521Z,99.99
2024-02-26T03:58:37.491Z,99.99
2024-02-26T03:59:37.449Z,99.99
2024-02-26T04:00:37.808Z,99.99
2024-02-26T04:01:37.364Z,99.99
2024-02-26T04:02:38.051Z,99.99
2024-02-26T04:03:37.286Z,99.99
2024-02-26T04:04:37.297Z,99.99
2024-02-26T04:05:37.507Z,99.99
2024-02-26T04:06:37.280Z,99.99
2024-02-26T04:07:37.130Z,99.99
2024-02-26T04:08:37.091Z,99.99
2024-02-26T04:09:37.055Z,99.99
2024-02-26T04:10:37.303Z,99.99
2024-02-26T04:11:36.976Z,99.99
2024-02-26T04:12:36.959Z,99.99
2024-02-26T04:13:36.906Z,99.99
2024-02-26T04:14:36.862Z,99.99
2024-02-26T04:15:37.108Z,99.99
2024-02-26T04:16:37.070Z,99.99
2024-02-26T04:17:36.779Z,99.99
2024-02-26T04:18:36.846Z,99.99
2024-02-26T04:19:36.745Z,99.99
2024-02-26T04:20:36.932Z,99.99
2024-02-26T04:21:36.675Z,99.99
2024-02-26T04:22:36.591Z,99.99
2024-02-26T04:23:36.540Z,99.99
2024-02-26T04:24:36.477Z,99.99
2024-02-26T04:25:36.713Z,99.99
2024-02-26T04:26:36.401Z,99.99
2024-02-26T04:27:36.376Z,99.99
2024-02-26T04:28:36.338Z,99.99
2024-02-26T04:29:36.287Z,99.99
2024-02-26T04:30:37.155Z,99.99
2024-02-26T04:31:36.209Z,99.99
2024-02-26T04:32:36.290Z,99.99
2024-02-26T04:33:36.403Z,99.99
2024-02-26T04:34:36.141Z,99.99
2024-02-26T04:35:36.321Z,99.99
2024-02-26T04:36:36.013Z,99.99
2024-02-26T04:37:35.993Z,99.99
2024-02-26T04:38:35.945Z,99.99
2024-02-26T04:39:35.904Z,99.99
2024-02-26T04:40:36.157Z,99.99
2024-02-26T04:41:35.821Z,99.99
2024-02-26T04:42:35.786Z,99.99
2024-02-26T04:43:35.746Z,99.99
2024-02-26T04:44:35.729Z,99.99
2024-02-26T04:45:35.943Z,99.99
2024-02-26T04:46:35.646Z,99.99
2024-02-26T04:47:35.613Z,99.99
2024-02-26T04:48:35.707Z,99.99
2024-02-26T04:49:35.587Z,99.99
2024-02-26T04:50:35.750Z,99.99
2024-02-26T04:51:35.450Z,99.99
2024-02-26T04:52:35.398Z,99.99
2024-02-26T04:53:35.366Z,99.99
2024-02-26T04:54:35.335Z,99.99
2024-02-26T04:55:35.573Z,99.99
2024-02-26T04:56:35.260Z,99.99
2024-02-26T04:57:35.288Z,99.99
2024-02-26T04:58:35.169Z,99.99
2024-02-26T04:59:35.139Z,99.99
2024-02-26T05:00:35.434Z,99.99
2024-02-26T05:01:35.132Z,99.99
2024-02-26T05:02:35.018Z,99.99
2024-02-26T05:03:37.227Z,99.99
2024-02-26T05:04:34.991Z,99.99
2024-02-26T05:05:35.184Z,99.99
2024-02-26T05:06:34.951Z,99.99
2024-02-26T05:07:34.839Z,99.99
2024-02-26T05:08:34.806Z,99.99
2024-02-26T05:09:36.546Z,99.99
2024-02-26T05:10:34.989Z,99.99
2024-02-26T05:11:34.691Z,99.99
2024-02-26T05:12:34.666Z,99.99
2024-02-26T05:13:34.609Z,99.99
2024-02-26T05:14:38.584Z,99.99
2024-02-26T05:15:34.940Z,99.99
2024-02-26T05:16:34.513Z,99.99
2024-02-26T05:17:34.446Z,99.99
2024-02-26T05:18:34.525Z,99.99
2024-02-26T05:19:34.420Z,99.99
2024-02-26T05:20:34.610Z,99.99
2024-02-26T05:21:34.312Z,99.99
2024-02-26T05:22:34.255Z,99.99
2024-02-26T05:23:34.209Z,99.99
2024-02-26T05:24:34.201Z,99.99
2024-02-26T05:25:34.408Z,99.99
2024-02-26T05:26:34.111Z,99.99
2024-02-26T05:27:34.066Z,99.99
2024-02-26T05:28:34.036Z,99.99
2024-02-26T05:29:33.976Z,99.99
2024-02-26T05:30:34.250Z,99.99
2024-02-26T05:31:33.931Z,99.99
2024-02-26T05:32:33.967Z,99.99
2024-02-26T05:33:34.035Z,99.99
2024-02-26T05:34:33.927Z,99.99
2024-02-26T05:35:34.136Z,99.99
2024-02-26T05:36:33.729Z,99.99
2024-02-26T05:37:33.673Z,99.99
2024-02-26T05:38:33.656Z,99.99
2024-02-26T05:39:33.624Z,99.99
2024-02-26T05:40:33.841Z,99.99
2024-02-26T05:41:33.517Z,99.99
2024-02-26T05:42:33.508Z,99.99
2024-02-26T05:43:33.446Z,99.99
2024-02-26T05:44:33.427Z,99.99
2024-02-26T05:45:33.730Z,99.99
2024-02-26T05:46:33.331Z,99.99
2024-02-26T05:47:33.318Z,99.99
2024-02-26T05:48:33.392Z,99.99
2024-02-26T05:49:33.252Z,99.99
2024-02-26T05:50:33.453Z,99.99
2024-02-26T05:51:33.181Z,99.99
2024-02-26T05:52:33.106Z,99.99
2024-02-26T05:53:33.069Z,99.99
2024-02-26T05:54:33.086Z,99.99
2024-02-26T05:55:33.268Z,99.99
2024-02-26T05:56:32.954Z,99.99
2024-02-26T05:57:32.982Z,99.99
2024-02-26T05:58:32.867Z,99.99
2024-02-26T05:59:32.846Z,99.99
2024-02-26T06:00:33.200Z,99.99
2024-02-26T06:01:32.775Z,99.99
2024-02-26T06:02:32.714Z,99.99
2024-02-26T06:03:32.766Z,99.99
2024-02-26T06:04:32.683Z,99.99
2024-02-26T06:05:32.962Z,99.99
2024-02-26T06:06:32.653Z,99.99
2024-02-26T06:07:32.514Z,99.99
2024-02-26T06:08:32.486Z,99.99
2024-02-26T06:09:32.520Z,99.99
2024-02-26T06:10:32.685Z,99.99
2024-02-26T06:11:32.402Z,99.99
2024-02-26T06:12:32.427Z,99.99
2024-02-26T06:13:32.284Z,99.99
2024-02-26T06:14:32.249Z,99.99
2024-02-26T06:15:32.336Z,99.99
2024-02-26T06:16:32.170Z,99.99
2024-02-26T06:17:32.154Z,99.99
2024-02-26T06:18:32.308Z,99.99
2024-02-26T06:19:32.149Z,99.99
2024-02-26T06:20:32.297Z,99.99
2024-02-26T06:21:32.082Z,99.99
2024-02-26T06:22:31.937Z,99.99
2024-02-26T06:23:31.898Z,99.99
2024-02-26T06:24:32.600Z,99.99
2024-02-26T06:25:31.850Z,99.99
2024-02-26T06:26:31.782Z,99.99
2024-02-26T06:27:31.803Z,99.99
2024-02-26T06:28:31.716Z,99.99
2024-02-26T06:29:31.676Z,99.99
2024-02-26T06:30:31.937Z,99.99
2024-02-26T06:31:31.609Z,99.99
2024-02-26T06:32:31.702Z,99.99
2024-02-26T06:33:31.740Z,99.99
2024-02-26T06:34:31.553Z,99.99
2024-02-26T06:35:31.461Z,99.99
2024-02-26T06:36:31.450Z,99.99
2024-02-26T06:37:31.361Z,99.99
2024-02-26T06:38:31.321Z,99.99
2024-02-26T06:39:31.331Z,99.99
2024-02-26T06:40:31.531Z,99.99
2024-02-26T06:41:31.244Z,99.99
2024-02-26T06:42:31.216Z,99.99
2024-02-26T06:43:31.153Z,99.99
2024-02-26T06:44:31.094Z,99.99
2024-02-26T06:45:31.250Z,99.99
2024-02-26T06:46:31.035Z,99.99
2024-02-26T06:47:31.003Z,99.99
2024-02-26T06:48:32.665Z,99.99
2024-02-26T06:49:31.019Z,99.99
2024-02-26T06:50:31.193Z,99.99
2024-02-26T06:51:30.923Z,99.99
2024-02-26T06:52:30.956Z,99.99
2024-02-26T06:53:30.772Z,99.99
2024-02-26T06:54:30.849Z,99.99
2024-02-26T06:55:31.401Z,99.99
2024-02-26T06:56:30.652Z,99.99
2024-02-26T06:57:30.688Z,99.99
2024-02-26T06:58:30.567Z,99.99
2024-02-26T06:59:30.946Z,99.99
2024-02-26T07:00:30.520Z,99.99
2024-02-26T07:01:30.513Z,99.99
2024-02-26T07:02:30.414Z,99.99
2024-02-26T07:03:30.480Z,99.99
2024-02-26T07:04:30.700Z,99.99
2024-02-26T07:05:37.369Z,99.99
2024-02-26T07:06:30.296Z,99.99
2024-02-26T07:07:30.258Z,99.99
2024-02-26T07:08:30.244Z,99.99
2024-02-26T07:09:30.827Z,99.99
2024-02-26T07:10:30.116Z,99.99
2024-02-26T07:11:30.128Z,99.99
2024-02-26T07:12:30.123Z,99.99
2024-02-26T07:13:30.021Z,99.99
2024-02-26T07:14:30.259Z,99.99
2024-02-26T07:15:29.990Z,99.99
2024-02-26T07:16:29.886Z,99.99
2024-02-26T07:17:29.889Z,99.99
2024-02-26T07:18:29.941Z,99.99
2024-02-26T07:19:29.849Z,99.99
2024-02-26T07:20:29.753Z,99.99
2024-02-26T07:21:29.779Z,99.99
2024-02-26T07:22:29.666Z,99.99
2024-02-26T07:23:29.624Z,99.99
2024-02-26T07:24:29.702Z,99.99
2024-02-26T07:25:29.572Z,99.99
2024-02-26T07:26:29.551Z,99.99
2024-02-26T07:27:29.535Z,99.99
2024-02-26T07:28:29.459Z,99.99
2024-02-26T07:29:29.682Z,99.99
2024-02-26T07:30:29.415Z,99.99
2024-02-26T07:31:29.329Z,99.99
2024-02-26T07:32:29.337Z,99.99
2024-02-26T07:33:29.441Z,99.99
2024-02-26T07:34:29.403Z,99.99
2024-02-26T07:35:29.197Z,99.99
2024-02-26T07:36:29.247Z,99.99
2024-02-26T07:37:29.123Z,99.99
2024-02-26T07:38:37.065Z,99.99
2024-02-26T07:39:29.374Z,99.99
2024-02-26T07:40:28.995Z,99.99
2024-02-26T07:41:29.023Z,99.99
2024-02-26T07:42:28.968Z,99.99
2024-02-26T07:43:28.885Z,99.99
2024-02-26T07:44:29.140Z,99.99
2024-02-26T07:45:28.866Z,99.99
2024-02-26T07:46:28.800Z,99.99
2024-02-26T07:47:28.770Z,99.99
2024-02-26T07:48:28.801Z,99.99
2024-02-26T07:49:29.056Z,99.99
2024-02-26T07:50:28.624Z,99.99
2024-02-26T07:51:28.662Z,99.99
2024-02-26T07:52:28.554Z,99.99
2024-02-26T07:53:28.521Z,99.99
2024-02-26T07:54:28.562Z,99.99
2024-02-26T07:55:28.484Z,99.99
2024-02-26T07:56:28.424Z,99.99
2024-02-26T07:57:28.438Z,99.95
2024-02-26T07:58:28.332Z,99.99
2024-02-26T07:59:28.594Z,99.65
2024-02-26T08:00:28.382Z,99.99
2024-02-26T08:01:28.306Z,99.24
2024-02-26T08:02:28.198Z,98.62
2024-02-26T08:03:28.232Z,98.72
2024-02-26T08:04:28.474Z,98.93
2024-02-26T08:05:28.151Z,98.31
2024-02-26T08:06:28.092Z,98.16
2024-02-26T08:07:28.042Z,97.54
2024-02-26T08:08:27.968Z,97.85
2024-02-26T08:09:28.299Z,97.39
2024-02-26T08:10:31.327Z,97.08
2024-02-26T08:11:27.887Z,96.67
2024-02-26T08:12:27.931Z,96.94
2024-02-26T08:13:27.808Z,96.83
2024-02-26T08:14:28.049Z,96.01
2024-02-26T08:15:27.818Z,96.42
2024-02-26T08:16:28.063Z,95.96
2024-02-26T08:17:27.669Z,95.96
2024-02-26T08:18:27.904Z,95.24
2024-02-26T08:19:27.835Z,95.81
2024-02-26T08:20:27.565Z,95.30
2024-02-26T08:21:27.582Z,94.78
2024-02-26T08:22:27.488Z,94.37
2024-02-26T08:23:27.495Z,94.57
2024-02-26T08:24:27.770Z,94.37
2024-02-26T08:25:27.375Z,94.17
2024-02-26T08:26:27.351Z,94.37
2024-02-26T08:27:27.330Z,94.27
2024-02-26T08:28:27.270Z,94.02
2024-02-26T08:29:27.268Z,93.40
2024-02-26T08:30:27.374Z,93.71
2024-02-26T08:31:27.160Z,92.84
2024-02-26T08:32:27.147Z,92.63
2024-02-26T08:33:27.428Z,92.74
2024-02-26T08:34:27.239Z,92.38
2024-02-26T08:35:27.037Z,92.63
2024-02-26T08:36:27.066Z,93.21
2024-02-26T08:37:26.947Z,92.49
2024-02-26T08:38:27.185Z,92.55
2024-02-26T08:39:26.965Z,92.49
2024-02-26T08:40:26.859Z,92.08
2024-02-26T08:41:26.826Z,91.87
2024-02-26T08:42:26.817Z,91.56
2024-02-26T08:43:27.022Z,91.56
2024-02-26T08:44:26.703Z,91.66
2024-02-26T08:45:29.833Z,91.87
2024-02-26T08:46:26.636Z,91.83
2024-02-26T08:47:26.634Z,91.62
2024-02-26T08:48:27.000Z,91.47
2024-02-26T08:49:26.644Z,91.27
2024-02-26T08:50:26.501Z,91.72
2024-02-26T08:51:26.512Z,91.11
2024-02-26T08:52:26.423Z,91.17
2024-02-26T08:53:34.991Z,91.06
2024-02-26T08:54:26.407Z,90.34
2024-02-26T08:55:26.332Z,90.51
2024-02-26T08:56:26.314Z,90.09
2024-02-26T08:57:26.317Z,90.20
2024-02-26T08:58:26.225Z,89.38
2024-02-26T08:59:26.217Z,89.38
2024-02-26T09:00:26.236Z,89.48
2024-02-26T09:01:26.171Z,89.34
2024-02-26T09:02:26.116Z,89.64
2024-02-26T09:03:26.112Z,89.40
2024-02-26T09:04:26.062Z,88.57
2024-02-26T09:05:25.977Z,88.84
2024-02-26T09:06:26.018Z,88.43
2024-02-26T09:07:25.963Z,88.64
2024-02-26T09:08:25.877Z,88.12
2024-02-26T09:09:25.927Z,89.46
2024-02-26T09:10:25.806Z,87.26
2024-02-26T09:11:25.855Z,88.18
2024-02-26T09:12:26.140Z,88.39
2024-02-26T09:13:25.702Z,87.37
2024-02-26T09:14:28.286Z,86.85
2024-02-26T09:15:25.698Z,86.95
2024-02-26T09:16:25.613Z,86.75
2024-02-26T09:17:25.647Z,86.65
2024-02-26T09:18:25.763Z,87.05
2024-02-26T09:19:25.695Z,86.17
2024-02-26T09:20:25.579Z,86.68
2024-02-26T09:21:25.499Z,86.89
2024-02-26T09:22:25.430Z,87.30
2024-02-26T09:23:25.367Z,87.10
2024-02-26T09:24:25.399Z,87.20
2024-02-26T09:25:25.302Z,87.20
2024-02-26T09:26:25.297Z,87.30
2024-02-26T09:27:25.360Z,86.58
2024-02-26T09:28:25.199Z,86.79
2024-02-26T09:29:25.167Z,86.27
2024-02-26T09:30:25.184Z,86.58
2024-02-26T09:31:25.378Z,86.48
2024-02-26T09:32:25.054Z,86.68
2024-02-26T09:33:25.275Z,87.30
2024-02-26T09:34:25.041Z,86.27
2024-02-26T09:35:24.971Z,87.10
2024-02-26T09:36:25.335Z,87.05
2024-02-26T09:37:24.886Z,86.54
2024-02-26T09:38:24.985Z,86.54
2024-02-26T09:39:24.852Z,86.44
2024-02-26T09:40:24.861Z,86.81
2024-02-26T09:41:25.036Z,86.65
2024-02-26T09:42:24.756Z,86.95
2024-02-26T09:43:24.705Z,85.99
2024-02-26T09:44:24.646Z,84.96
2024-02-26T09:45:24.616Z,86.33
2024-02-26T09:46:24.965Z,85.68
2024-02-26T09:47:24.560Z,86.30
2024-02-26T09:48:24.582Z,85.47
2024-02-26T09:49:24.549Z,84.86
2024-02-26T09:50:24.853Z,84.66
2024-02-26T09:51:24.432Z,84.86
2024-02-26T09:52:24.502Z,84.45
2024-02-26T09:53:24.340Z,84.66
2024-02-26T09:54:24.451Z,84.66
2024-02-26T09:55:24.269Z,84.61
2024-02-26T09:56:24.306Z,84.41
2024-02-26T09:57:24.207Z,84.82
2024-02-26T09:58:24.262Z,83.90
2024-02-26T09:59:24.145Z,83.28
2024-02-26T10:00:24.298Z,84.78
2024-02-26T10:01:24.404Z,84.68
2024-02-26T10:02:24.031Z,84.23
2024-02-26T10:03:24.063Z,82.79
2024-02-26T10:04:24.073Z,82.79
2024-02-26T10:05:23.986Z,82.90
2024-02-26T10:06:24.264Z,82.49
2024-02-26T10:07:23.921Z,82.55
2024-02-26T10:08:23.935Z,82.96
2024-02-26T10:09:23.852Z,81.94
2024-02-26T10:10:23.778Z,81.49
2024-02-26T10:11:23.825Z,82.31
2024-02-26T10:12:24.055Z,82.00
2024-02-26T10:13:23.676Z,81.08
2024-02-26T10:14:23.625Z,81.38
2024-02-26T10:15:23.622Z,80.98
2024-02-26T10:16:23.597Z,81.15
2024-02-26T10:17:23.559Z,80.63
2024-02-26T10:18:23.634Z,81.35
2024-02-26T10:19:23.553Z,79.91
2024-02-26T10:20:23.687Z,79.82
2024-02-26T10:21:24.747Z,79.91
2024-02-26T10:22:23.362Z,79.91
2024-02-26T10:23:23.352Z,78.79
2024-02-26T10:24:23.500Z,79.37
2024-02-26T10:25:23.264Z,78.75
2024-02-26T10:26:23.547Z,78.55
2024-02-26T10:27:23.196Z,78.55
2024-02-26T10:28:23.155Z,78.86
2024-02-26T10:29:23.124Z,79.37
2024-02-26T10:30:23.334Z,78.20
2024-02-26T10:31:23.575Z,77.80
2024-02-26T10:32:23.030Z,78.00
2024-02-26T10:33:23.389Z,78.52
2024-02-26T10:34:23.059Z,78.11
2024-02-26T10:35:23.013Z,78.52
2024-02-26T10:36:22.952Z,78.41
2024-02-26T10:37:22.863Z,78.14
2024-02-26T10:38:22.852Z,78.34
2024-02-26T10:39:23.168Z,78.92
2024-02-26T10:40:22.870Z,78.82
2024-02-26T10:41:23.007Z,78.20
2024-02-26T10:42:22.734Z,77.97
2024-02-26T10:43:22.657Z,77.45
2024-02-26T10:44:22.625Z,77.56
2024-02-26T10:45:22.950Z,76.98
2024-02-26T10:46:23.166Z,76.78
2024-02-26T10:47:22.529Z,77.66
2024-02-26T10:48:22.651Z,77.56
2024-02-26T10:49:23.277Z,77.45
2024-02-26T10:50:22.704Z,76.94
2024-02-26T10:51:22.447Z,76.29
2024-02-26T10:52:22.363Z,76.40
2024-02-26T10:53:22.339Z,75.89
2024-02-26T10:54:22.389Z,75.85
2024-02-26T10:55:22.502Z,75.95
2024-02-26T10:56:22.322Z,75.54
2024-02-26T10:57:22.341Z,74.73
2024-02-26T10:58:22.168Z,75.34
2024-02-26T10:59:22.364Z,75.58
2024-02-26T11:00:22.230Z,75.17
2024-02-26T11:01:22.686Z,74.35
2024-02-26T11:02:22.048Z,74.46
2024-02-26T11:03:22.119Z,74.66
2024-02-26T11:04:22.264Z,74.93
2024-02-26T11:05:22.004Z,74.52
2024-02-26T11:06:22.054Z,74.76
2024-02-26T11:07:21.916Z,75.04
2024-02-26T11:08:21.847Z,74.42
2024-02-26T11:09:21.821Z,74.15
2024-02-26T11:10:21.790Z,74.25
2024-02-26T11:11:21.764Z,74.25
2024-02-26T11:12:21.818Z,74.15
2024-02-26T11:13:21.669Z,73.91
2024-02-26T11:14:21.669Z,74.01
2024-02-26T11:15:21.656Z,74.32
2024-02-26T11:16:22.174Z,73.91
2024-02-26T11:17:22.254Z,73.47
2024-02-26T11:18:21.742Z,73.27
2024-02-26T11:19:21.924Z,73.36
2024-02-26T11:20:21.977Z,72.96
2024-02-26T11:21:21.409Z,73.74
2024-02-26T11:22:25.246Z,72.82
2024-02-26T11:23:21.343Z,71.39
2024-02-26T11:24:21.380Z,72.52
2024-02-26T11:25:21.285Z,72.82
2024-02-26T11:26:21.408Z,72.31
2024-02-26T11:27:21.318Z,72.72
2024-02-26T11:28:21.275Z,72.52
2024-02-26T11:29:21.444Z,72.69
2024-02-26T11:30:21.212Z,71.46
2024-02-26T11:31:21.093Z,70.85
2024-02-26T11:32:21.044Z,70.72
2024-02-26T11:33:21.467Z,70.21
2024-02-26T11:34:21.087Z,70.24
2024-02-26T11:35:20.951Z,70.82
2024-02-26T11:36:21.079Z,70.61
2024-02-26T11:37:20.926Z,70.31
2024-02-26T11:38:20.875Z,69.90
2024-02-26T11:39:20.856Z,69.09
2024-02-26T11:40:20.820Z,69.59
2024-02-26T11:41:20.757Z,69.46
2024-02-26T11:42:20.779Z,68.95
2024-02-26T11:43:20.991Z,69.29
2024-02-26T11:44:20.755Z,69.46
2024-02-26T11:45:20.689Z,68.95
2024-02-26T11:46:20.594Z,69.56
2024-02-26T11:47:20.567Z,68.54
2024-02-26T11:48:21.099Z,67.63
2024-02-26T11:49:20.603Z,68.75
2024-02-26T11:50:20.476Z,68.10
2024-02-26T11:51:20.595Z,68.13
2024-02-26T11:52:20.418Z,67.60
2024-02-26T11:53:20.377Z,67.73
2024-02-26T11:54:20.381Z,67.80
2024-02-26T11:55:20.329Z,68.21
2024-02-26T11:56:20.272Z,67.19
2024-02-26T11:57:22.177Z,68.01
2024-02-26T11:58:20.218Z,68.13
2024-02-26T11:59:20.255Z,66.99
2024-02-26T12:00:20.267Z,67.08
2024-02-26T12:01:20.146Z,67.57
2024-02-26T12:02:20.090Z,67.36
2024-02-26T12:03:20.106Z,68.04
2024-02-26T12:04:20.023Z,67.53
2024-02-26T12:05:20.086Z,67.33
2024-02-26T12:06:20.041Z,66.72
2024-02-26T12:07:19.981Z,67.77
2024-02-26T12:08:19.945Z,67.97
2024-02-26T12:09:19.919Z,67.77
2024-02-26T12:10:19.875Z,68.18
2024-02-26T12:11:19.816Z,67.97
2024-02-26T12:12:19.993Z,68.48
2024-02-26T12:13:20.401Z,68.79
2024-02-26T12:14:19.730Z,68.07
2024-02-26T12:15:19.706Z,68.18
2024-02-26T12:16:19.731Z,68.10
2024-02-26T12:17:19.608Z,69.02
2024-02-26T12:18:20.124Z,68.58
2024-02-26T12:19:19.619Z,68.27
2024-02-26T12:20:19.570Z,68.18
2024-02-26T12:21:19.558Z,68.10
2024-02-26T12:22:19.464Z,68.21
2024-02-26T12:23:19.714Z,68.62
2024-02-26T12:24:19.462Z,68.51
2024-02-26T12:25:19.384Z,68.99
2024-02-26T12:26:19.342Z,68.79
2024-02-26T12:27:19.356Z,67.05
2024-02-26T12:28:19.534Z,67.97
2024-02-26T12:29:19.231Z,67.26
2024-02-26T12:30:19.243Z,67.16
2024-02-26T12:31:19.170Z,68.07
2024-02-26T12:32:19.243Z,68.01
2024-02-26T12:33:19.640Z,67.69
2024-02-26T12:34:19.189Z,67.69
2024-02-26T12:35:19.075Z,68.10
2024-02-26T12:36:19.094Z,67.69
2024-02-26T12:37:19.010Z,67.60
2024-02-26T12:38:18.968Z,67.49
2024-02-26T12:39:18.951Z,67.69
2024-02-26T12:40:18.913Z,67.69
2024-02-26T12:41:18.858Z,67.90
2024-02-26T12:42:18.862Z,67.69
2024-02-26T12:43:19.236Z,67.60
2024-02-26T12:44:18.755Z,67.69
2024-02-26T12:45:18.999Z,67.08
2024-02-26T12:46:18.689Z,66.99
2024-02-26T12:47:18.657Z,67.19
2024-02-26T12:48:18.888Z,66.71
2024-02-26T12:49:19.025Z,67.22
2024-02-26T12:50:18.616Z,67.22
2024-02-26T12:51:18.572Z,66.71
2024-02-26T12:52:18.516Z,67.02